sensor_id;sensor_type;location;lat;lon;timestamp;temperature;humidity
58261;DHT22;44058;52.898;6.502;2022-08-19T00:00:25;17.30;99.90
58261;DHT22;44058;52.898;6.502;2022-08-19T00:02:53;17.30;99.90
58261;DHT22;44058;52.898;6.502;2022-08-19T00:05:19;17.30;99.90
58261;DHT22;44058;52.898;6.502;2022-08-19T00:07:45;17.30;99.90
58261;DHT22;44058;52.898;6.502;2022-08-19T00:10:14;17.30;99.90
58261;DHT22;44058;52.898;6.502;2022-08-19T00:12:40;17.30;99.90
58261;DHT22;44058;52.898;6.502;2022-08-19T00:15:09;17.30;99.90
58261;DHT22;44058;52.898;6.502;2022-08-19T00:17:47;17.30;99.90
58261;DHT22;44058;52.898;6.502;2022-08-19T00:20:17;17.20;99.90
58261;DHT22;44058;52.898;6.502;2022-08-19T00:22:45;17.30;99.90
58261;DHT22;44058;52.898;6.502;2022-08-19T00:25:11;17.30;99.90
58261;DHT22;44058;52.898;6.502;2022-08-19T00:27:38;17.30;99.90
58261;DHT22;44058;52.898;6.502;2022-08-19T00:30:06;17.30;99.90
58261;DHT22;44058;52.898;6.502;2022-08-19T00:32:32;17.30;99.90
58261;DHT22;44058;52.898;6.502;2022-08-19T00:35:00;17.30;99.90
58261;DHT22;44058;52.898;6.502;2022-08-19T00:37:29;17.20;99.90
58261;DHT22;44058;52.898;6.502;2022-08-19T00:39:55;17.20;99.90
58261;DHT22;44058;52.898;6.502;2022-08-19T00:42:22;17.20;99.90
58261;DHT22;44058;52.898;6.502;2022-08-19T00:44:49;17.20;99.90
58261;DHT22;44058;52.898;6.502;2022-08-19T00:47:16;17.10;99.90
58261;DHT22;44058;52.898;6.502;2022-08-19T00:49:49;17.10;99.90
58261;DHT22;44058;52.898;6.502;2022-08-19T00:52:24;17.00;99.90
58261;DHT22;44058;52.898;6.502;2022-08-19T00:54:52;17.00;99.90
58261;DHT22;44058;52.898;6.502;2022-08-19T00:57:22;17.00;99.90
58261;DHT22;44058;52.898;6.502;2022-08-19T00:59:51;17.00;99.90
58261;DHT22;44058;52.898;6.502;2022-08-19T01:02:18;16.90;99.90
58261;DHT22;44058;52.898;6.502;2022-08-19T01:04:44;16.90;99.90
58261;DHT22;44058;52.898;6.502;2022-08-19T01:07:09;16.90;99.90
58261;DHT22;44058;52.898;6.502;2022-08-19T01:09:35;16.90;99.90
58261;DHT22;44058;52.898;6.502;2022-08-19T01:12:02;16.90;99.90
58261;DHT22;44058;52.898;6.502;2022-08-19T01:14:28;16.90;99.90
58261;DHT22;44058;52.898;6.502;2022-08-19T01:16:54;16.90;99.90
58261;DHT22;44058;52.898;6.502;2022-08-19T01:19:29;16.80;99.90
58261;DHT22;44058;52.898;6.502;2022-08-19T01:22:02;16.80;99.90
58261;DHT22;44058;52.898;6.502;2022-08-19T01:24:29;16.80;99.90
58261;DHT22;44058;52.898;6.502;2022-08-19T01:26:56;16.80;99.90
58261;DHT22;44058;52.898;6.502;2022-08-19T01:29:22;16.80;99.90
58261;DHT22;44058;52.898;6.502;2022-08-19T01:31:48;16.70;99.90
58261;DHT22;44058;52.898;6.502;2022-08-19T01:34:14;16.70;99.90
58261;DHT22;44058;52.898;6.502;2022-08-19T01:36:43;16.70;99.90
58261;DHT22;44058;52.898;6.502;2022-08-19T01:39:18;16.70;99.90
58261;DHT22;44058;52.898;6.502;2022-08-19T01:41:45;16.70;99.90
58261;DHT22;44058;52.898;6.502;2022-08-19T01:44:11;16.70;99.90
58261;DHT22;44058;52.898;6.502;2022-08-19T01:46:37;16.80;99.90
58261;DHT22;44058;52.898;6.502;2022-08-19T01:49:05;16.60;99.90
58261;DHT22;44058;52.898;6.502;2022-08-19T01:51:31;16.70;99.90
58261;DHT22;44058;52.898;6.502;2022-08-19T01:53:58;16.60;99.90
58261;DHT22;44058;52.898;6.502;2022-08-19T01:56:25;16.60;99.90
58261;DHT22;44058;52.898;6.502;2022-08-19T01:59:00;16.60;99.90
58261;DHT22;44058;52.898;6.502;2022-08-19T02:01:27;16.70;99.90
58261;DHT22;44058;52.898;6.502;2022-08-19T02:03:53;16.60;99.90
58261;DHT22;44058;52.898;6.502;2022-08-19T02:06:19;16.60;99.90
58261;DHT22;44058;52.898;6.502;2022-08-19T02:08:45;16.50;99.90
58261;DHT22;44058;52.898;6.502;2022-08-19T02:11:19;16.50;99.90
58261;DHT22;44058;52.898;6.502;2022-08-19T02:13:46;16.50;99.90
58261;DHT22;44058;52.898;6.502;2022-08-19T02:16:12;16.50;99.90
58261;DHT22;44058;52.898;6.502;2022-08-19T02:18:38;16.60;99.90
58261;DHT22;44058;52.898;6.502;2022-08-19T02:21:04;16.50;99.90
58261;DHT22;44058;52.898;6.502;2022-08-19T02:23:31;16.50;99.90
58261;DHT22;44058;52.898;6.502;2022-08-19T02:25:57;16.50;99.90
58261;DHT22;44058;52.898;6.502;2022-08-19T02:28:23;16.50;99.90
58261;DHT22;44058;52.898;6.502;2022-08-19T02:30:49;16.40;99.90
58261;DHT22;44058;52.898;6.502;2022-08-19T02:33:15;16.40;99.90
58261;DHT22;44058;52.898;6.502;2022-08-19T02:35:43;16.40;99.90
58261;DHT22;44058;52.898;6.502;2022-08-19T02:38:09;16.40;99.90
58261;DHT22;44058;52.898;6.502;2022-08-19T02:40:59;16.50;99.90
58261;DHT22;44058;52.898;6.502;2022-08-19T02:43:27;16.40;99.90
58261;DHT22;44058;52.898;6.502;2022-08-19T02:45:53;16.50;99.90
58261;DHT22;44058;52.898;6.502;2022-08-19T02:48:23;16.40;99.90
58261;DHT22;44058;52.898;6.502;2022-08-19T02:50:49;16.40;99.90
58261;DHT22;44058;52.898;6.502;2022-08-19T02:53:25;16.30;99.90
58261;DHT22;44058;52.898;6.502;2022-08-19T02:55:52;16.30;99.90
58261;DHT22;44058;52.898;6.502;2022-08-19T02:58:19;16.30;99.90
58261;DHT22;44058;52.898;6.502;2022-08-19T03:00:47;16.40;99.90
58261;DHT22;44058;52.898;6.502;2022-08-19T03:03:14;16.30;99.90
58261;DHT22;44058;52.898;6.502;2022-08-19T03:05:41;16.40;99.90
58261;DHT22;44058;52.898;6.502;2022-08-19T03:08:07;16.40;99.90
58261;DHT22;44058;52.898;6.502;2022-08-19T03:10:39;16.30;99.90
58261;DHT22;44058;52.898;6.502;2022-08-19T03:13:05;16.30;99.90
58261;DHT22;44058;52.898;6.502;2022-08-19T03:15:31;16.30;99.90
58261;DHT22;44058;52.898;6.502;2022-08-19T03:17:56;16.30;99.90
58261;DHT22;44058;52.898;6.502;2022-08-19T03:20:22;16.30;99.90
58261;DHT22;44058;52.898;6.502;2022-08-19T03:22:48;16.40;99.90
58261;DHT22;44058;52.898;6.502;2022-08-19T03:25:14;16.30;99.90
58261;DHT22;44058;52.898;6.502;2022-08-19T03:27:40;16.30;99.90
58261;DHT22;44058;52.898;6.502;2022-08-19T03:30:07;16.30;99.90
58261;DHT22;44058;52.898;6.502;2022-08-19T03:32:32;16.30;99.90
58261;DHT22;44058;52.898;6.502;2022-08-19T03:34:58;16.30;99.90
58261;DHT22;44058;52.898;6.502;2022-08-19T03:37:24;16.40;99.90
58261;DHT22;44058;52.898;6.502;2022-08-19T03:39:51;16.40;99.90
58261;DHT22;44058;52.898;6.502;2022-08-19T03:42:16;16.40;99.90
58261;DHT22;44058;52.898;6.502;2022-08-19T03:44:43;16.30;99.90
58261;DHT22;44058;52.898;6.502;2022-08-19T03:47:10;16.30;99.90
58261;DHT22;44058;52.898;6.502;2022-08-19T03:49:41;16.30;99.90
58261;DHT22;44058;52.898;6.502;2022-08-19T03:52:07;16.30;99.90
58261;DHT22;44058;52.898;6.502;2022-08-19T03:54:33;16.20;99.90
58261;DHT22;44058;52.898;6.502;2022-08-19T03:56:59;16.20;99.90
58261;DHT22;44058;52.898;6.502;2022-08-19T03:59:31;16.10;99.90
58261;DHT22;44058;52.898;6.502;2022-08-19T04:02:00;16.20;99.90
58261;DHT22;44058;52.898;6.502;2022-08-19T04:04:26;16.10;99.90
58261;DHT22;44058;52.898;6.502;2022-08-19T04:06:52;16.00;99.90
58261;DHT22;44058;52.898;6.502;2022-08-19T04:09:19;16.00;99.90
58261;DHT22;44058;52.898;6.502;2022-08-19T04:11:50;16.00;99.90
58261;DHT22;44058;52.898;6.502;2022-08-19T04:14:21;16.00;99.90
58261;DHT22;44058;52.898;6.502;2022-08-19T04:16:48;16.00;99.90
58261;DHT22;44058;52.898;6.502;2022-08-19T04:19:16;16.00;99.90
58261;DHT22;44058;52.898;6.502;2022-08-19T04:21:45;16.00;99.90
58261;DHT22;44058;52.898;6.502;2022-08-19T04:24:11;15.90;99.90
58261;DHT22;44058;52.898;6.502;2022-08-19T04:26:37;15.80;99.90
58261;DHT22;44058;52.898;6.502;2022-08-19T04:29:09;15.80;99.90
58261;DHT22;44058;52.898;6.502;2022-08-19T04:31:48;15.80;99.90
58261;DHT22;44058;52.898;6.502;2022-08-19T04:34:17;15.80;99.90
58261;DHT22;44058;52.898;6.502;2022-08-19T04:36:44;15.80;99.90
58261;DHT22;44058;52.898;6.502;2022-08-19T04:39:14;15.80;99.90
58261;DHT22;44058;52.898;6.502;2022-08-19T04:41:41;15.80;99.90
58261;DHT22;44058;52.898;6.502;2022-08-19T04:44:25;15.80;99.90
58261;DHT22;44058;52.898;6.502;2022-08-19T04:46:51;15.80;99.90
58261;DHT22;44058;52.898;6.502;2022-08-19T04:49:21;15.80;99.90
58261;DHT22;44058;52.898;6.502;2022-08-19T04:51:52;15.80;99.90
58261;DHT22;44058;52.898;6.502;2022-08-19T04:54:19;15.80;99.90
58261;DHT22;44058;52.898;6.502;2022-08-19T04:56:51;15.70;99.90
58261;DHT22;44058;52.898;6.502;2022-08-19T04:59:18;15.70;99.90
58261;DHT22;44058;52.898;6.502;2022-08-19T05:01:46;15.60;99.90
58261;DHT22;44058;52.898;6.502;2022-08-19T05:04:19;15.70;99.90
58261;DHT22;44058;52.898;6.502;2022-08-19T05:06:46;15.80;99.90
58261;DHT22;44058;52.898;6.502;2022-08-19T05:09:14;15.80;99.90
58261;DHT22;44058;52.898;6.502;2022-08-19T05:11:40;15.80;99.90
58261;DHT22;44058;52.898;6.502;2022-08-19T05:14:07;15.90;99.90
58261;DHT22;44058;52.898;6.502;2022-08-19T05:16:33;15.80;99.90
58261;DHT22;44058;52.898;6.502;2022-08-19T05:18:59;15.90;99.90
58261;DHT22;44058;52.898;6.502;2022-08-19T05:21:44;16.00;99.90
58261;DHT22;44058;52.898;6.502;2022-08-19T05:24:29;16.00;99.90
58261;DHT22;44058;52.898;6.502;2022-08-19T05:26:55;16.10;99.90
58261;DHT22;44058;52.898;6.502;2022-08-19T05:29:27;16.10;99.90
58261;DHT22;44058;52.898;6.502;2022-08-19T05:31:54;16.20;99.90
58261;DHT22;44058;52.898;6.502;2022-08-19T05:34:22;16.30;99.90
58261;DHT22;44058;52.898;6.502;2022-08-19T05:36:50;16.30;99.90
58261;DHT22;44058;52.898;6.502;2022-08-19T05:39:18;16.40;99.90
58261;DHT22;44058;52.898;6.502;2022-08-19T05:41:46;16.50;99.90
58261;DHT22;44058;52.898;6.502;2022-08-19T05:44:12;16.50;99.90
58261;DHT22;44058;52.898;6.502;2022-08-19T05:46:39;16.60;99.90
58261;DHT22;44058;52.898;6.502;2022-08-19T05:49:07;16.60;99.90
58261;DHT22;44058;52.898;6.502;2022-08-19T05:51:36;16.80;99.90
58261;DHT22;44058;52.898;6.502;2022-08-19T05:54:04;16.90;99.90
58261;DHT22;44058;52.898;6.502;2022-08-19T05:56:31;17.10;99.90
58261;DHT22;44058;52.898;6.502;2022-08-19T05:58:58;17.20;99.90
58261;DHT22;44058;52.898;6.502;2022-08-19T06:01:25;17.30;99.90
58261;DHT22;44058;52.898;6.502;2022-08-19T06:03:51;17.40;99.90
58261;DHT22;44058;52.898;6.502;2022-08-19T06:06:17;17.50;99.90
58261;DHT22;44058;52.898;6.502;2022-08-19T06:08:44;17.50;99.90
58261;DHT22;44058;52.898;6.502;2022-08-19T06:11:25;17.60;99.90
58261;DHT22;44058;52.898;6.502;2022-08-19T06:14:01;17.70;99.90
58261;DHT22;44058;52.898;6.502;2022-08-19T06:16:27;17.70;99.90
58261;DHT22;44058;52.898;6.502;2022-08-19T06:18:56;17.80;99.90
58261;DHT22;44058;52.898;6.502;2022-08-19T06:21:24;17.90;99.90
58261;DHT22;44058;52.898;6.502;2022-08-19T06:23:51;18.00;99.90
58261;DHT22;44058;52.898;6.502;2022-08-19T06:26:18;18.10;99.90
58261;DHT22;44058;52.898;6.502;2022-08-19T06:28:45;18.00;99.90
58261;DHT22;44058;52.898;6.502;2022-08-19T06:31:23;18.20;99.90
58261;DHT22;44058;52.898;6.502;2022-08-19T06:33:49;18.30;99.90
58261;DHT22;44058;52.898;6.502;2022-08-19T06:36:29;18.40;99.90
58261;DHT22;44058;52.898;6.502;2022-08-19T06:39:04;18.40;99.90
58261;DHT22;44058;52.898;6.502;2022-08-19T06:41:32;18.50;99.90
58261;DHT22;44058;52.898;6.502;2022-08-19T06:43:59;18.50;99.90
58261;DHT22;44058;52.898;6.502;2022-08-19T06:46:25;18.60;99.90
58261;DHT22;44058;52.898;6.502;2022-08-19T06:48:52;18.70;99.90
58261;DHT22;44058;52.898;6.502;2022-08-19T06:51:18;18.80;99.90
58261;DHT22;44058;52.898;6.502;2022-08-19T06:53:49;18.80;99.90
58261;DHT22;44058;52.898;6.502;2022-08-19T06:56:16;18.90;99.90
58261;DHT22;44058;52.898;6.502;2022-08-19T06:58:43;19.10;99.90
58261;DHT22;44058;52.898;6.502;2022-08-19T07:01:09;19.10;99.90
58261;DHT22;44058;52.898;6.502;2022-08-19T07:03:37;19.20;99.90
58261;DHT22;44058;52.898;6.502;2022-08-19T07:06:11;19.30;99.90
58261;DHT22;44058;52.898;6.502;2022-08-19T07:08:38;19.30;99.90
58261;DHT22;44058;52.898;6.502;2022-08-19T07:11:08;19.40;99.90
58261;DHT22;44058;52.898;6.502;2022-08-19T07:13:35;19.50;99.90
58261;DHT22;44058;52.898;6.502;2022-08-19T07:16:11;19.50;99.90
58261;DHT22;44058;52.898;6.502;2022-08-19T07:18:37;19.60;99.90
58261;DHT22;44058;52.898;6.502;2022-08-19T07:21:15;19.70;99.90
58261;DHT22;44058;52.898;6.502;2022-08-19T07:23:42;19.70;99.90
58261;DHT22;44058;52.898;6.502;2022-08-19T07:26:20;19.80;99.90
58261;DHT22;44058;52.898;6.502;2022-08-19T07:28:47;19.80;99.90
58261;DHT22;44058;52.898;6.502;2022-08-19T07:31:16;19.90;99.90
58261;DHT22;44058;52.898;6.502;2022-08-19T07:33:45;20.00;99.90
58261;DHT22;44058;52.898;6.502;2022-08-19T07:36:14;20.00;99.90
58261;DHT22;44058;52.898;6.502;2022-08-19T07:38:42;20.10;99.90
58261;DHT22;44058;52.898;6.502;2022-08-19T07:41:13;20.10;99.90
58261;DHT22;44058;52.898;6.502;2022-08-19T07:43:40;20.30;99.90
58261;DHT22;44058;52.898;6.502;2022-08-19T07:46:07;20.40;99.90
58261;DHT22;44058;52.898;6.502;2022-08-19T07:48:33;20.40;99.90
58261;DHT22;44058;52.898;6.502;2022-08-19T07:51:01;20.40;99.90
58261;DHT22;44058;52.898;6.502;2022-08-19T07:53:28;20.60;99.90
58261;DHT22;44058;52.898;6.502;2022-08-19T07:55:54;20.60;99.90
58261;DHT22;44058;52.898;6.502;2022-08-19T07:58:22;20.70;99.90
58261;DHT22;44058;52.898;6.502;2022-08-19T08:00:49;20.70;99.90
58261;DHT22;44058;52.898;6.502;2022-08-19T08:03:18;20.80;99.90
58261;DHT22;44058;52.898;6.502;2022-08-19T08:05:46;20.90;99.90
58261;DHT22;44058;52.898;6.502;2022-08-19T08:08:31;21.00;99.90
58261;DHT22;44058;52.898;6.502;2022-08-19T08:10:57;21.00;99.90
58261;DHT22;44058;52.898;6.502;2022-08-19T08:13:23;21.10;99.90
58261;DHT22;44058;52.898;6.502;2022-08-19T08:15:49;21.20;99.90
58261;DHT22;44058;52.898;6.502;2022-08-19T08:18:15;21.30;99.90
58261;DHT22;44058;52.898;6.502;2022-08-19T08:20:42;21.40;99.90
58261;DHT22;44058;52.898;6.502;2022-08-19T08:23:08;21.30;99.90
58261;DHT22;44058;52.898;6.502;2022-08-19T08:25:51;21.40;99.90
58261;DHT22;44058;52.898;6.502;2022-08-19T08:28:18;21.50;99.90
58261;DHT22;44058;52.898;6.502;2022-08-19T08:30:46;21.50;99.90
58261;DHT22;44058;52.898;6.502;2022-08-19T08:33:14;21.60;99.90
58261;DHT22;44058;52.898;6.502;2022-08-19T08:35:43;21.60;99.90
58261;DHT22;44058;52.898;6.502;2022-08-19T08:38:09;21.70;99.90
58261;DHT22;44058;52.898;6.502;2022-08-19T08:40:50;21.70;99.90
58261;DHT22;44058;52.898;6.502;2022-08-19T08:43:27;21.80;99.90
58261;DHT22;44058;52.898;6.502;2022-08-19T08:46:05;21.80;99.90
58261;DHT22;44058;52.898;6.502;2022-08-19T08:48:36;21.90;99.90
58261;DHT22;44058;52.898;6.502;2022-08-19T08:51:07;21.90;99.90
58261;DHT22;44058;52.898;6.502;2022-08-19T08:53:35;21.90;99.90
58261;DHT22;44058;52.898;6.502;2022-08-19T08:56:03;22.00;99.90
58261;DHT22;44058;52.898;6.502;2022-08-19T08:58:53;22.00;99.90
58261;DHT22;44058;52.898;6.502;2022-08-19T09:01:20;22.20;99.90
58261;DHT22;44058;52.898;6.502;2022-08-19T09:03:46;22.20;99.90
58261;DHT22;44058;52.898;6.502;2022-08-19T09:09:05;22.40;99.90
58261;DHT22;44058;52.898;6.502;2022-08-19T09:11:54;22.40;99.90
58261;DHT22;44058;52.898;6.502;2022-08-19T09:14:34;22.40;99.90
58261;DHT22;44058;52.898;6.502;2022-08-19T09:17:02;22.50;99.90
58261;DHT22;44058;52.898;6.502;2022-08-19T09:19:29;22.50;99.90
58261;DHT22;44058;52.898;6.502;2022-08-19T09:21:56;22.50;99.90
58261;DHT22;44058;52.898;6.502;2022-08-19T09:24:21;22.60;99.90
58261;DHT22;44058;52.898;6.502;2022-08-19T09:26:47;22.60;99.90
58261;DHT22;44058;52.898;6.502;2022-08-19T09:29:13;22.70;99.90
58261;DHT22;44058;52.898;6.502;2022-08-19T09:31:39;22.80;99.90
58261;DHT22;44058;52.898;6.502;2022-08-19T09:34:05;22.90;99.90
58261;DHT22;44058;52.898;6.502;2022-08-19T09:36:32;22.90;99.90
58261;DHT22;44058;52.898;6.502;2022-08-19T09:38:59;23.00;99.90
58261;DHT22;44058;52.898;6.502;2022-08-19T09:41:26;23.00;99.90
58261;DHT22;44058;52.898;6.502;2022-08-19T09:43:54;23.10;99.90
58261;DHT22;44058;52.898;6.502;2022-08-19T09:46:24;23.20;99.90
58261;DHT22;44058;52.898;6.502;2022-08-19T09:48:51;23.30;99.90
58261;DHT22;44058;52.898;6.502;2022-08-19T09:51:24;23.30;99.90
58261;DHT22;44058;52.898;6.502;2022-08-19T09:53:55;23.40;99.90
58261;DHT22;44058;52.898;6.502;2022-08-19T09:56:24;23.50;99.90
58261;DHT22;44058;52.898;6.502;2022-08-19T09:58:50;23.50;99.90
58261;DHT22;44058;52.898;6.502;2022-08-19T10:01:22;23.60;99.90
58261;DHT22;44058;52.898;6.502;2022-08-19T10:03:51;23.60;99.90
58261;DHT22;44058;52.898;6.502;2022-08-19T10:06:19;23.70;99.90
58261;DHT22;44058;52.898;6.502;2022-08-19T10:08:49;23.80;99.90
58261;DHT22;44058;52.898;6.502;2022-08-19T10:11:18;23.90;99.90
58261;DHT22;44058;52.898;6.502;2022-08-19T10:13:44;24.00;99.90
58261;DHT22;44058;52.898;6.502;2022-08-19T10:16:16;24.10;99.90
58261;DHT22;44058;52.898;6.502;2022-08-19T10:18:43;24.10;99.90
58261;DHT22;44058;52.898;6.502;2022-08-19T10:21:15;24.30;99.90
58261;DHT22;44058;52.898;6.502;2022-08-19T10:23:44;24.30;99.90
58261;DHT22;44058;52.898;6.502;2022-08-19T10:26:13;24.40;99.90
58261;DHT22;44058;52.898;6.502;2022-08-19T10:28:39;24.50;99.90
58261;DHT22;44058;52.898;6.502;2022-08-19T10:31:14;24.50;99.90
58261;DHT22;44058;52.898;6.502;2022-08-19T10:33:41;24.50;99.90
58261;DHT22;44058;52.898;6.502;2022-08-19T10:36:10;24.60;99.90
58261;DHT22;44058;52.898;6.502;2022-08-19T10:38:38;24.70;99.90
58261;DHT22;44058;52.898;6.502;2022-08-19T10:41:23;24.80;99.90
58261;DHT22;44058;52.898;6.502;2022-08-19T10:44:01;24.80;99.90
58261;DHT22;44058;52.898;6.502;2022-08-19T10:46:28;24.80;99.90
58261;DHT22;44058;52.898;6.502;2022-08-19T10:48:56;24.80;99.90
58261;DHT22;44058;52.898;6.502;2022-08-19T10:51:22;24.90;99.90
58261;DHT22;44058;52.898;6.502;2022-08-19T10:54:06;25.00;99.90
58261;DHT22;44058;52.898;6.502;2022-08-19T10:56:33;25.10;99.90
58261;DHT22;44058;52.898;6.502;2022-08-19T10:59:19;25.20;99.90
58261;DHT22;44058;52.898;6.502;2022-08-19T11:01:45;25.30;99.90
58261;DHT22;44058;52.898;6.502;2022-08-19T11:04:12;25.30;99.90
58261;DHT22;44058;52.898;6.502;2022-08-19T11:06:42;25.20;99.90
58261;DHT22;44058;52.898;6.502;2022-08-19T11:09:09;25.30;99.90
58261;DHT22;44058;52.898;6.502;2022-08-19T11:11:37;25.30;99.90
58261;DHT22;44058;52.898;6.502;2022-08-19T11:14:12;25.30;99.90
58261;DHT22;44058;52.898;6.502;2022-08-19T11:16:38;25.30;99.90
58261;DHT22;44058;52.898;6.502;2022-08-19T11:19:05;25.30;99.90
58261;DHT22;44058;52.898;6.502;2022-08-19T11:21:34;25.40;99.90
58261;DHT22;44058;52.898;6.502;2022-08-19T11:24:04;25.50;99.90
58261;DHT22;44058;52.898;6.502;2022-08-19T11:26:32;25.50;99.90
58261;DHT22;44058;52.898;6.502;2022-08-19T11:28:59;25.40;99.90
58261;DHT22;44058;52.898;6.502;2022-08-19T11:31:28;25.30;99.90
58261;DHT22;44058;52.898;6.502;2022-08-19T11:34:02;25.10;99.90
58261;DHT22;44058;52.898;6.502;2022-08-19T11:36:29;25.30;99.90
58261;DHT22;44058;52.898;6.502;2022-08-19T11:38:56;25.30;99.90
58261;DHT22;44058;52.898;6.502;2022-08-19T11:41:23;25.40;99.90
58261;DHT22;44058;52.898;6.502;2022-08-19T11:43:50;25.50;99.90
58261;DHT22;44058;52.898;6.502;2022-08-19T11:46:18;25.60;99.90
58261;DHT22;44058;52.898;6.502;2022-08-19T11:48:45;25.70;99.90
58261;DHT22;44058;52.898;6.502;2022-08-19T11:51:21;25.80;99.90
58261;DHT22;44058;52.898;6.502;2022-08-19T11:53:48;26.00;99.90
58261;DHT22;44058;52.898;6.502;2022-08-19T11:56:16;26.10;99.90
58261;DHT22;44058;52.898;6.502;2022-08-19T11:58:42;26.20;99.90
58261;DHT22;44058;52.898;6.502;2022-08-19T12:01:15;26.30;99.90
58261;DHT22;44058;52.898;6.502;2022-08-19T12:03:43;26.40;99.90
58261;DHT22;44058;52.898;6.502;2022-08-19T12:06:13;26.50;99.90
58261;DHT22;44058;52.898;6.502;2022-08-19T12:08:42;26.50;99.90
58261;DHT22;44058;52.898;6.502;2022-08-19T12:11:09;26.50;99.90
58261;DHT22;44058;52.898;6.502;2022-08-19T12:13:37;26.60;99.90
58261;DHT22;44058;52.898;6.502;2022-08-19T12:16:10;26.60;99.90
58261;DHT22;44058;52.898;6.502;2022-08-19T12:18:38;26.60;99.90
58261;DHT22;44058;52.898;6.502;2022-08-19T12:21:04;26.70;99.90
58261;DHT22;44058;52.898;6.502;2022-08-19T12:23:30;26.70;99.90
58261;DHT22;44058;52.898;6.502;2022-08-19T12:25:56;26.80;99.90
58261;DHT22;44058;52.898;6.502;2022-08-19T12:28:24;26.80;99.90
58261;DHT22;44058;52.898;6.502;2022-08-19T12:30:50;26.80;99.90
58261;DHT22;44058;52.898;6.502;2022-08-19T12:33:18;26.70;99.90
58261;DHT22;44058;52.898;6.502;2022-08-19T12:35:45;26.60;99.90
58261;DHT22;44058;52.898;6.502;2022-08-19T12:38:14;26.50;99.90
58261;DHT22;44058;52.898;6.502;2022-08-19T12:40:41;26.40;99.90
58261;DHT22;44058;52.898;6.502;2022-08-19T12:43:07;26.40;99.90
58261;DHT22;44058;52.898;6.502;2022-08-19T12:45:35;26.40;99.90
58261;DHT22;44058;52.898;6.502;2022-08-19T12:48:01;26.40;99.90
58261;DHT22;44058;52.898;6.502;2022-08-19T12:50:28;26.40;99.90
58261;DHT22;44058;52.898;6.502;2022-08-19T12:52:54;26.40;99.90
58261;DHT22;44058;52.898;6.502;2022-08-19T12:55:21;26.30;99.90
58261;DHT22;44058;52.898;6.502;2022-08-19T12:57:47;26.30;99.90
58261;DHT22;44058;52.898;6.502;2022-08-19T13:00:17;26.20;99.90
58261;DHT22;44058;52.898;6.502;2022-08-19T13:02:50;26.30;99.90
58261;DHT22;44058;52.898;6.502;2022-08-19T13:05:22;26.20;99.90
58261;DHT22;44058;52.898;6.502;2022-08-19T13:07:49;26.20;99.90
58261;DHT22;44058;52.898;6.502;2022-08-19T13:10:18;26.20;99.90
58261;DHT22;44058;52.898;6.502;2022-08-19T13:12:45;26.20;99.90
58261;DHT22;44058;52.898;6.502;2022-08-19T13:15:11;26.20;99.90
58261;DHT22;44058;52.898;6.502;2022-08-19T13:17:38;26.20;99.90
58261;DHT22;44058;52.898;6.502;2022-08-19T13:20:05;26.10;99.90
58261;DHT22;44058;52.898;6.502;2022-08-19T13:22:33;26.10;99.90
58261;DHT22;44058;52.898;6.502;2022-08-19T13:25:02;26.10;99.90
58261;DHT22;44058;52.898;6.502;2022-08-19T13:27:29;26.00;99.90
58261;DHT22;44058;52.898;6.502;2022-08-19T13:29:55;26.00;99.90
58261;DHT22;44058;52.898;6.502;2022-08-19T13:32:39;26.00;99.90
58261;DHT22;44058;52.898;6.502;2022-08-19T13:35:23;25.90;99.90
58261;DHT22;44058;52.898;6.502;2022-08-19T13:37:49;25.80;99.90
58261;DHT22;44058;52.898;6.502;2022-08-19T13:40:18;25.90;99.90
58261;DHT22;44058;52.898;6.502;2022-08-19T13:42:48;25.90;99.90
58261;DHT22;44058;52.898;6.502;2022-08-19T13:45:16;25.90;99.90
58261;DHT22;44058;52.898;6.502;2022-08-19T13:47:46;25.80;99.90
58261;DHT22;44058;52.898;6.502;2022-08-19T13:50:14;25.70;99.90
58261;DHT22;44058;52.898;6.502;2022-08-19T13:52:41;25.60;99.90
58261;DHT22;44058;52.898;6.502;2022-08-19T13:55:08;25.50;99.90
58261;DHT22;44058;52.898;6.502;2022-08-19T13:57:35;25.40;99.90
58261;DHT22;44058;52.898;6.502;2022-08-19T14:00:03;25.30;99.90
58261;DHT22;44058;52.898;6.502;2022-08-19T14:02:29;25.30;99.90
58261;DHT22;44058;52.898;6.502;2022-08-19T14:04:55;25.10;99.90
58261;DHT22;44058;52.898;6.502;2022-08-19T14:07:20;25.10;99.90
58261;DHT22;44058;52.898;6.502;2022-08-19T14:09:49;25.00;99.90
58261;DHT22;44058;52.898;6.502;2022-08-19T14:12:19;24.80;99.90
58261;DHT22;44058;52.898;6.502;2022-08-19T14:14:46;24.80;99.90
58261;DHT22;44058;52.898;6.502;2022-08-19T14:17:11;24.70;99.90
58261;DHT22;44058;52.898;6.502;2022-08-19T14:19:37;24.60;99.90
58261;DHT22;44058;52.898;6.502;2022-08-19T14:22:03;24.50;99.90
58261;DHT22;44058;52.898;6.502;2022-08-19T14:24:29;24.40;99.90
58261;DHT22;44058;52.898;6.502;2022-08-19T14:26:57;24.40;99.90
58261;DHT22;44058;52.898;6.502;2022-08-19T14:29:23;24.30;99.90
58261;DHT22;44058;52.898;6.502;2022-08-19T14:31:49;24.30;99.90
58261;DHT22;44058;52.898;6.502;2022-08-19T14:34:15;24.30;99.90
58261;DHT22;44058;52.898;6.502;2022-08-19T14:36:40;24.30;99.90
58261;DHT22;44058;52.898;6.502;2022-08-19T14:39:07;24.20;99.90
58261;DHT22;44058;52.898;6.502;2022-08-19T14:41:33;24.20;99.90
58261;DHT22;44058;52.898;6.502;2022-08-19T14:43:59;24.20;99.90
58261;DHT22;44058;52.898;6.502;2022-08-19T14:46:28;24.20;99.90
58261;DHT22;44058;52.898;6.502;2022-08-19T14:48:54;24.30;99.90
58261;DHT22;44058;52.898;6.502;2022-08-19T14:51:22;24.30;99.90
58261;DHT22;44058;52.898;6.502;2022-08-19T14:53:50;24.30;99.90
58261;DHT22;44058;52.898;6.502;2022-08-19T14:56:20;24.40;99.90
58261;DHT22;44058;52.898;6.502;2022-08-19T14:58:46;24.50;99.90
58261;DHT22;44058;52.898;6.502;2022-08-19T15:01:13;24.60;99.90
58261;DHT22;44058;52.898;6.502;2022-08-19T15:03:39;24.60;99.90
58261;DHT22;44058;52.898;6.502;2022-08-19T15:06:09;24.70;99.90
58261;DHT22;44058;52.898;6.502;2022-08-19T15:08:37;24.80;99.90
58261;DHT22;44058;52.898;6.502;2022-08-19T15:11:11;24.70;99.90
58261;DHT22;44058;52.898;6.502;2022-08-19T15:13:37;24.70;99.90
58261;DHT22;44058;52.898;6.502;2022-08-19T15:16:03;24.60;99.90
58261;DHT22;44058;52.898;6.502;2022-08-19T15:18:29;24.60;99.90
58261;DHT22;44058;52.898;6.502;2022-08-19T15:20:55;24.50;99.90
58261;DHT22;44058;52.898;6.502;2022-08-19T15:23:22;24.50;99.90
58261;DHT22;44058;52.898;6.502;2022-08-19T15:25:48;24.50;99.90
58261;DHT22;44058;52.898;6.502;2022-08-19T15:28:14;24.40;99.90
58261;DHT22;44058;52.898;6.502;2022-08-19T15:30:41;24.50;99.90
58261;DHT22;44058;52.898;6.502;2022-08-19T15:33:10;24.50;99.90
58261;DHT22;44058;52.898;6.502;2022-08-19T15:35:38;24.50;99.90
58261;DHT22;44058;52.898;6.502;2022-08-19T15:38:05;24.50;99.90
58261;DHT22;44058;52.898;6.502;2022-08-19T15:40:32;24.50;99.90